This is the latest recevied weather packets stored in our database for station/object LRCK. If no packets are shown the sender has not sent any weather packets the latest 1 day(s).
| Time | Temp. | Humidity | Pressure | Rain* | Wind** | Luminosity | Snow |
|---|---|---|---|---|---|---|---|
| 1777952897 | 5° C | 76% | 1015 hPa | - | 2.68 m/s, 320° | - | - |
| 1777951997 | 5° C | 76% | 1015 hPa | - | 2.68 m/s, 320° | - | - |
| 1777951097 | 7.22° C | 66% | 1015 hPa | - | 2.68 m/s, 360° | - | - |
| 1777950197 | 7.22° C | 66% | 1015 hPa | - | 2.68 m/s, 360° | - | - |
| 1777949297 | 6.11° C | 66% | 1015 hPa | - | 3.13 m/s, 350° | - | - |
| 1777948397 | 6.11° C | 66% | 1015 hPa | - | 3.13 m/s, 350° | - | - |
| 1777947497 | 6.11° C | 71% | 1015 hPa | - | 2.68 m/s, 360° | - | - |
| 1777946597 | 6.11° C | 71% | 1015 hPa | - | 2.68 m/s, 360° | - | - |
| 1777945697 | 5° C | 76% | 1015 hPa | - | 1.34 m/s, 360° | - | - |
| 1777944797 | 5° C | 76% | 1015 hPa | - | 1.34 m/s, 360° | - | - |
| 1777943897 | 5° C | 76% | 1015 hPa | - | 2.24 m/s, 330° | - | - |
| 1777942998 | 5° C | 76% | 1015 hPa | - | 2.24 m/s, 330° | - | - |
| 1777942097 | 7.22° C | 66% | 1015 hPa | - | 2.24 m/s, 330° | - | - |
| 1777941197 | 7.22° C | 66% | 1015 hPa | - | 2.24 m/s, 330° | - | - |
| 1777940297 | 6.11° C | 71% | 1015 hPa | - | 3.13 m/s, 320° | - | - |
| 1777939397 | 6.11° C | 71% | 1015 hPa | - | 3.13 m/s, 320° | - | - |
| 1777938497 | 7.22° C | 66% | 1015 hPa | - | 2.68 m/s, 330° | - | - |
| 1777937597 | 7.22° C | 66% | 1015 hPa | - | 2.68 m/s, 330° | - | - |
| 1777936697 | 7.22° C | 66% | 1015 hPa | - | 2.68 m/s, 320° | - | - |
| 1777935797 | 7.22° C | 66% | 1015 hPa | - | 2.68 m/s, 320° | - | - |
| 1777934897 | 7.78° C | 66% | 1015 hPa | - | 3.13 m/s, 300° | - | - |
| 1777933997 | 7.78° C | 66% | 1015 hPa | - | 3.13 m/s, 300° | - | - |
* Rain since midnight (hover to see other rain measurements)
** Current wind speed in m/s (hover to see current wind gust speed)